sensor_id;sensor_type;location;lat;lon;timestamp;pressure;altitude;pressure_sealevel;temperature;humidity
13209;BME280;6669;42.678;23.332;2022-09-01T00:00:10;94231.53;;;17.56;100.00
13209;BME280;6669;42.678;23.332;2022-09-01T00:02:40;94227.41;;;17.48;100.00
13209;BME280;6669;42.678;23.332;2022-09-01T00:05:10;94226.41;;;17.49;100.00
13209;BME280;6669;42.678;23.332;2022-09-01T00:07:39;94226.94;;;17.51;100.00
13209;BME280;6669;42.678;23.332;2022-09-01T00:10:08;94209.81;;;17.48;100.00
13209;BME280;6669;42.678;23.332;2022-09-01T00:12:37;94218.88;;;17.53;100.00
13209;BME280;6669;42.678;23.332;2022-09-01T00:15:08;94219.53;;;17.48;100.00
13209;BME280;6669;42.678;23.332;2022-09-01T00:17:37;94216.91;;;17.48;100.00
13209;BME280;6669;42.678;23.332;2022-09-01T00:20:07;94219.41;;;17.43;100.00
13209;BME280;6669;42.678;23.332;2022-09-01T00:22:35;94198.69;;;17.35;100.00
13209;BME280;6669;42.678;23.332;2022-09-01T00:25:05;94206.94;;;17.38;100.00
13209;BME280;6669;42.678;23.332;2022-09-01T00:27:34;94205.00;;;17.34;100.00
13209;BME280;6669;42.678;23.332;2022-09-01T00:30:03;94207.81;;;17.32;100.00
13209;BME280;6669;42.678;23.332;2022-09-01T00:32:31;94208.16;;;17.24;100.00
13209;BME280;6669;42.678;23.332;2022-09-01T00:34:59;94214.53;;;17.16;100.00
13209;BME280;6669;42.678;23.332;2022-09-01T00:37:27;94213.50;;;17.17;100.00
13209;BME280;6669;42.678;23.332;2022-09-01T00:39:55;94220.44;;;17.11;100.00
13209;BME280;6669;42.678;23.332;2022-09-01T00:42:25;94226.16;;;17.08;100.00
13209;BME280;6669;42.678;23.332;2022-09-01T00:44:53;94223.81;;;17.00;100.00
13209;BME280;6669;42.678;23.332;2022-09-01T00:47:21;94220.50;;;16.93;100.00
13209;BME280;6669;42.678;23.332;2022-09-01T00:49:50;94227.78;;;16.91;100.00
13209;BME280;6669;42.678;23.332;2022-09-01T00:52:21;94231.78;;;16.93;100.00
13209;BME280;6669;42.678;23.332;2022-09-01T00:54:54;94224.69;;;16.94;100.00
13209;BME280;6669;42.678;23.332;2022-09-01T00:57:26;94232.84;;;16.86;100.00
13209;BME280;6669;42.678;23.332;2022-09-01T00:59:56;94236.72;;;16.83;100.00
13209;BME280;6669;42.678;23.332;2022-09-01T01:02:26;94233.63;;;16.86;100.00
13209;BME280;6669;42.678;23.332;2022-09-01T01:04:54;94234.09;;;16.83;100.00
13209;BME280;6669;42.678;23.332;2022-09-01T01:07:26;94228.47;;;16.79;100.00
13209;BME280;6669;42.678;23.332;2022-09-01T01:09:55;94236.13;;;16.81;100.00
13209;BME280;6669;42.678;23.332;2022-09-01T01:12:23;94235.75;;;16.77;100.00
13209;BME280;6669;42.678;23.332;2022-09-01T01:14:58;94238.03;;;16.74;100.00
13209;BME280;6669;42.678;23.332;2022-09-01T01:17:26;94234.38;;;16.75;100.00
13209;BME280;6669;42.678;23.332;2022-09-01T01:19:55;94243.06;;;16.75;100.00
13209;BME280;6669;42.678;23.332;2022-09-01T01:22:49;94234.47;;;16.68;100.00
13209;BME280;6669;42.678;23.332;2022-09-01T01:25:33;94231.28;;;16.66;100.00
13209;BME280;6669;42.678;23.332;2022-09-01T01:28:05;94225.06;;;16.60;100.00
13209;BME280;6669;42.678;23.332;2022-09-01T01:30:34;94229.72;;;16.58;100.00
13209;BME280;6669;42.678;23.332;2022-09-01T01:33:03;94234.41;;;16.56;100.00
13209;BME280;6669;42.678;23.332;2022-09-01T01:35:31;94228.56;;;16.54;100.00
13209;BME280;6669;42.678;23.332;2022-09-01T01:38:01;94231.84;;;16.49;100.00
13209;BME280;6669;42.678;23.332;2022-09-01T01:40:36;94234.66;;;16.48;100.00
13209;BME280;6669;42.678;23.332;2022-09-01T01:43:04;94230.81;;;16.50;100.00
13209;BME280;6669;42.678;23.332;2022-09-01T01:45:33;94233.00;;;16.35;100.00
13209;BME280;6669;42.678;23.332;2022-09-01T01:48:01;94244.72;;;16.32;100.00
13209;BME280;6669;42.678;23.332;2022-09-01T01:50:36;94235.75;;;16.40;100.00
13209;BME280;6669;42.678;23.332;2022-09-01T01:53:06;94253.91;;;16.42;100.00
13209;BME280;6669;42.678;23.332;2022-09-01T01:55:40;94248.94;;;16.33;100.00
13209;BME280;6669;42.678;23.332;2022-09-01T01:58:09;94258.34;;;16.41;100.00
13209;BME280;6669;42.678;23.332;2022-09-01T02:00:42;94256.19;;;16.38;100.00
13209;BME280;6669;42.678;23.332;2022-09-01T02:03:13;94248.56;;;16.30;100.00
13209;BME280;6669;42.678;23.332;2022-09-01T02:05:46;94251.56;;;16.33;100.00
13209;BME280;6669;42.678;23.332;2022-09-01T02:08:15;94259.88;;;16.30;100.00
13209;BME280;6669;42.678;23.332;2022-09-01T02:10:50;94264.47;;;16.35;100.00
13209;BME280;6669;42.678;23.332;2022-09-01T02:13:20;94257.59;;;16.34;100.00
13209;BME280;6669;42.678;23.332;2022-09-01T02:15:54;94235.53;;;16.23;100.00
13209;BME280;6669;42.678;23.332;2022-09-01T02:18:24;94264.25;;;16.37;100.00
13209;BME280;6669;42.678;23.332;2022-09-01T02:20:54;94266.28;;;16.34;100.00
13209;BME280;6669;42.678;23.332;2022-09-01T02:23:24;94257.94;;;16.44;100.00
13209;BME280;6669;42.678;23.332;2022-09-01T02:25:55;94265.13;;;16.49;100.00
13209;BME280;6669;42.678;23.332;2022-09-01T02:28:45;94267.75;;;16.49;100.00
13209;BME280;6669;42.678;23.332;2022-09-01T02:31:22;94264.19;;;16.43;100.00
13209;BME280;6669;42.678;23.332;2022-09-01T02:33:50;94262.59;;;16.42;100.00
13209;BME280;6669;42.678;23.332;2022-09-01T02:36:20;94257.41;;;16.36;100.00
13209;BME280;6669;42.678;23.332;2022-09-01T02:38:48;94255.44;;;16.31;100.00
13209;BME280;6669;42.678;23.332;2022-09-01T02:41:23;94256.44;;;16.30;100.00
13209;BME280;6669;42.678;23.332;2022-09-01T02:43:54;94251.28;;;16.23;100.00
13209;BME280;6669;42.678;23.332;2022-09-01T02:46:22;94254.50;;;16.25;100.00
13209;BME280;6669;42.678;23.332;2022-09-01T02:48:51;94250.09;;;16.19;100.00
13209;BME280;6669;42.678;23.332;2022-09-01T02:51:22;94249.94;;;16.14;100.00
13209;BME280;6669;42.678;23.332;2022-09-01T02:53:52;94236.00;;;16.13;100.00
13209;BME280;6669;42.678;23.332;2022-09-01T02:56:23;94245.94;;;16.11;100.00
13209;BME280;6669;42.678;23.332;2022-09-01T02:58:53;94245.88;;;16.18;100.00
13209;BME280;6669;42.678;23.332;2022-09-01T03:01:25;94245.72;;;16.13;100.00
13209;BME280;6669;42.678;23.332;2022-09-01T03:03:57;94237.84;;;16.13;100.00
13209;BME280;6669;42.678;23.332;2022-09-01T03:06:25;94247.59;;;16.06;100.00
13209;BME280;6669;42.678;23.332;2022-09-01T03:08:55;94238.34;;;16.03;100.00
13209;BME280;6669;42.678;23.332;2022-09-01T03:11:27;94243.16;;;16.06;100.00
13209;BME280;6669;42.678;23.332;2022-09-01T03:14:01;94239.50;;;16.07;100.00
13209;BME280;6669;42.678;23.332;2022-09-01T03:16:29;94247.53;;;16.12;100.00
13209;BME280;6669;42.678;23.332;2022-09-01T03:18:58;94246.28;;;16.15;100.00
13209;BME280;6669;42.678;23.332;2022-09-01T03:21:29;94242.09;;;16.14;100.00
13209;BME280;6669;42.678;23.332;2022-09-01T03:23:58;94235.78;;;16.15;100.00
13209;BME280;6669;42.678;23.332;2022-09-01T03:26:30;94247.09;;;16.15;100.00
13209;BME280;6669;42.678;23.332;2022-09-01T03:28:58;94251.13;;;16.18;100.00
13209;BME280;6669;42.678;23.332;2022-09-01T03:31:26;94253.13;;;16.16;100.00
13209;BME280;6669;42.678;23.332;2022-09-01T03:33:57;94250.81;;;16.08;100.00
13209;BME280;6669;42.678;23.332;2022-09-01T03:36:26;94255.81;;;16.09;100.00
13209;BME280;6669;42.678;23.332;2022-09-01T03:38:56;94260.84;;;16.11;100.00
13209;BME280;6669;42.678;23.332;2022-09-01T03:41:26;94260.53;;;16.00;100.00
13209;BME280;6669;42.678;23.332;2022-09-01T03:43:57;94253.91;;;15.98;100.00
13209;BME280;6669;42.678;23.332;2022-09-01T03:46:26;94252.66;;;16.00;100.00
13209;BME280;6669;42.678;23.332;2022-09-01T03:49:03;94256.16;;;15.94;100.00
13209;BME280;6669;42.678;23.332;2022-09-01T03:51:33;94255.72;;;15.97;100.00
13209;BME280;6669;42.678;23.332;2022-09-01T03:54:05;94252.13;;;15.92;100.00
13209;BME280;6669;42.678;23.332;2022-09-01T03:56:33;94252.50;;;15.95;100.00
13209;BME280;6669;42.678;23.332;2022-09-01T03:59:03;94251.19;;;15.86;100.00
13209;BME280;6669;42.678;23.332;2022-09-01T04:01:33;94250.59;;;15.84;100.00
13209;BME280;6669;42.678;23.332;2022-09-01T04:04:09;94251.25;;;15.73;100.00
13209;BME280;6669;42.678;23.332;2022-09-01T04:06:40;94258.25;;;15.79;100.00
13209;BME280;6669;42.678;23.332;2022-09-01T04:09:08;94257.88;;;15.75;100.00
13209;BME280;6669;42.678;23.332;2022-09-01T04:11:37;94256.25;;;15.74;100.00
13209;BME280;6669;42.678;23.332;2022-09-01T04:14:13;94254.25;;;15.76;100.00
13209;BME280;6669;42.678;23.332;2022-09-01T04:16:42;94244.19;;;15.73;100.00
13209;BME280;6669;42.678;23.332;2022-09-01T04:19:28;94248.69;;;15.66;100.00
13209;BME280;6669;42.678;23.332;2022-09-01T04:22:00;94238.41;;;15.64;100.00
13209;BME280;6669;42.678;23.332;2022-09-01T04:24:30;94242.44;;;15.67;100.00
13209;BME280;6669;42.678;23.332;2022-09-01T04:27:01;94238.66;;;15.56;100.00
13209;BME280;6669;42.678;23.332;2022-09-01T04:29:30;94243.28;;;15.61;100.00
13209;BME280;6669;42.678;23.332;2022-09-01T04:32:01;94244.66;;;15.63;100.00
13209;BME280;6669;42.678;23.332;2022-09-01T04:34:33;94243.66;;;15.64;100.00
13209;BME280;6669;42.678;23.332;2022-09-01T04:37:07;94241.78;;;15.72;100.00
13209;BME280;6669;42.678;23.332;2022-09-01T04:39:36;94237.72;;;15.76;100.00
13209;BME280;6669;42.678;23.332;2022-09-01T04:42:05;94241.94;;;15.83;100.00
13209;BME280;6669;42.678;23.332;2022-09-01T04:44:37;94242.88;;;15.89;100.00
13209;BME280;6669;42.678;23.332;2022-09-01T04:47:06;94243.25;;;15.93;100.00
13209;BME280;6669;42.678;23.332;2022-09-01T04:49:36;94242.47;;;15.92;100.00
13209;BME280;6669;42.678;23.332;2022-09-01T04:52:04;94241.59;;;15.98;100.00
13209;BME280;6669;42.678;23.332;2022-09-01T04:54:32;94237.09;;;16.06;100.00
13209;BME280;6669;42.678;23.332;2022-09-01T04:57:03;94235.63;;;16.10;100.00
13209;BME280;6669;42.678;23.332;2022-09-01T04:59:32;94238.25;;;16.10;100.00
13209;BME280;6669;42.678;23.332;2022-09-01T05:02:02;94230.56;;;16.15;100.00
13209;BME280;6669;42.678;23.332;2022-09-01T05:04:33;94237.66;;;16.33;100.00
13209;BME280;6669;42.678;23.332;2022-09-01T05:07:03;94238.91;;;16.30;100.00
13209;BME280;6669;42.678;23.332;2022-09-01T05:09:33;94239.69;;;16.31;100.00
13209;BME280;6669;42.678;23.332;2022-09-01T05:12:03;94239.41;;;16.39;100.00
13209;BME280;6669;42.678;23.332;2022-09-01T05:14:44;94254.06;;;16.47;100.00
13209;BME280;6669;42.678;23.332;2022-09-01T05:17:15;94243.13;;;16.50;100.00
13209;BME280;6669;42.678;23.332;2022-09-01T05:19:46;94242.25;;;16.56;100.00
13209;BME280;6669;42.678;23.332;2022-09-01T05:22:17;94238.97;;;16.61;100.00
13209;BME280;6669;42.678;23.332;2022-09-01T05:24:48;94243.00;;;16.63;100.00
13209;BME280;6669;42.678;23.332;2022-09-01T05:27:21;94248.06;;;16.58;100.00
13209;BME280;6669;42.678;23.332;2022-09-01T05:29:49;94237.03;;;16.56;100.00
13209;BME280;6669;42.678;23.332;2022-09-01T05:32:20;94243.66;;;16.59;100.00
13209;BME280;6669;42.678;23.332;2022-09-01T05:34:52;94239.78;;;16.61;100.00
13209;BME280;6669;42.678;23.332;2022-09-01T05:37:20;94233.66;;;16.67;100.00
13209;BME280;6669;42.678;23.332;2022-09-01T05:39:48;94230.81;;;16.69;100.00
13209;BME280;6669;42.678;23.332;2022-09-01T05:42:18;94236.44;;;16.73;100.00
13209;BME280;6669;42.678;23.332;2022-09-01T05:44:46;94236.81;;;16.76;100.00
13209;BME280;6669;42.678;23.332;2022-09-01T05:47:19;94241.19;;;16.82;100.00
13209;BME280;6669;42.678;23.332;2022-09-01T05:49:48;94240.94;;;16.84;100.00
13209;BME280;6669;42.678;23.332;2022-09-01T05:52:19;94235.56;;;16.79;100.00
13209;BME280;6669;42.678;23.332;2022-09-01T05:54:51;94241.59;;;16.79;100.00
13209;BME280;6669;42.678;23.332;2022-09-01T05:57:22;94242.56;;;16.85;100.00
13209;BME280;6669;42.678;23.332;2022-09-01T06:00:03;94244.38;;;16.84;100.00
13209;BME280;6669;42.678;23.332;2022-09-01T06:02:38;94246.16;;;16.91;100.00
13209;BME280;6669;42.678;23.332;2022-09-01T06:05:07;94235.84;;;16.89;100.00
13209;BME280;6669;42.678;23.332;2022-09-01T06:07:36;94239.47;;;16.88;100.00
13209;BME280;6669;42.678;23.332;2022-09-01T06:10:08;94231.69;;;17.00;100.00
13209;BME280;6669;42.678;23.332;2022-09-01T06:12:37;94235.69;;;17.03;100.00
13209;BME280;6669;42.678;23.332;2022-09-01T06:15:07;94225.31;;;17.08;100.00
13209;BME280;6669;42.678;23.332;2022-09-01T06:17:43;94226.78;;;17.22;100.00
13209;BME280;6669;42.678;23.332;2022-09-01T06:20:12;94229.53;;;17.27;100.00
13209;BME280;6669;42.678;23.332;2022-09-01T06:22:44;94228.97;;;17.37;100.00
13209;BME280;6669;42.678;23.332;2022-09-01T06:25:13;94232.06;;;17.34;100.00
13209;BME280;6669;42.678;23.332;2022-09-01T06:27:43;94232.44;;;17.49;100.00
13209;BME280;6669;42.678;23.332;2022-09-01T06:30:12;94225.28;;;17.57;100.00
13209;BME280;6669;42.678;23.332;2022-09-01T06:32:52;94242.53;;;17.64;100.00
13209;BME280;6669;42.678;23.332;2022-09-01T06:35:21;94229.84;;;17.61;100.00
13209;BME280;6669;42.678;23.332;2022-09-01T06:37:50;94234.31;;;17.73;100.00
13209;BME280;6669;42.678;23.332;2022-09-01T06:40:18;94233.22;;;17.80;100.00
13209;BME280;6669;42.678;23.332;2022-09-01T06:42:48;94231.03;;;17.89;100.00
13209;BME280;6669;42.678;23.332;2022-09-01T06:45:19;94232.78;;;17.95;100.00
13209;BME280;6669;42.678;23.332;2022-09-01T06:47:48;94232.69;;;18.02;100.00
13209;BME280;6669;42.678;23.332;2022-09-01T06:50:27;94234.97;;;17.99;100.00
13209;BME280;6669;42.678;23.332;2022-09-01T06:53:15;94236.56;;;18.00;100.00
13209;BME280;6669;42.678;23.332;2022-09-01T06:56:01;94235.19;;;17.97;100.00
13209;BME280;6669;42.678;23.332;2022-09-01T06:58:29;94236.00;;;17.97;100.00
13209;BME280;6669;42.678;23.332;2022-09-01T07:00:58;94245.25;;;18.00;100.00
13209;BME280;6669;42.678;23.332;2022-09-01T07:03:26;94237.94;;;18.02;100.00
13209;BME280;6669;42.678;23.332;2022-09-01T07:05:56;94242.38;;;18.13;100.00
13209;BME280;6669;42.678;23.332;2022-09-01T07:08:27;94245.59;;;18.27;100.00
13209;BME280;6669;42.678;23.332;2022-09-01T07:10:55;94247.00;;;18.42;100.00
13209;BME280;6669;42.678;23.332;2022-09-01T07:13:44;94242.84;;;18.58;100.00
13209;BME280;6669;42.678;23.332;2022-09-01T07:16:34;94235.59;;;18.77;100.00
13209;BME280;6669;42.678;23.332;2022-09-01T07:19:18;94238.00;;;18.78;100.00
13209;BME280;6669;42.678;23.332;2022-09-01T07:21:48;94244.88;;;18.91;100.00
13209;BME280;6669;42.678;23.332;2022-09-01T07:24:35;94244.50;;;19.00;100.00
13209;BME280;6669;42.678;23.332;2022-09-01T07:27:05;94249.41;;;19.08;100.00
13209;BME280;6669;42.678;23.332;2022-09-01T07:29:36;94253.72;;;19.14;100.00
13209;BME280;6669;42.678;23.332;2022-09-01T07:32:07;94254.25;;;19.28;100.00
13209;BME280;6669;42.678;23.332;2022-09-01T07:34:55;94248.56;;;19.19;100.00
13209;BME280;6669;42.678;23.332;2022-09-01T07:37:27;94249.66;;;19.35;100.00
13209;BME280;6669;42.678;23.332;2022-09-01T07:40:17;94252.63;;;19.39;100.00
13209;BME280;6669;42.678;23.332;2022-09-01T07:43:14;94250.22;;;19.37;100.00
13209;BME280;6669;42.678;23.332;2022-09-01T07:45:45;94257.97;;;19.44;100.00
13209;BME280;6669;42.678;23.332;2022-09-01T07:48:35;94257.38;;;19.54;100.00
13209;BME280;6669;42.678;23.332;2022-09-01T07:51:24;94258.03;;;19.78;100.00
13209;BME280;6669;42.678;23.332;2022-09-01T07:54:04;94253.50;;;19.90;100.00
13209;BME280;6669;42.678;23.332;2022-09-01T07:56:32;94255.84;;;20.04;100.00
13209;BME280;6669;42.678;23.332;2022-09-01T07:59:06;94265.97;;;20.12;100.00
13209;BME280;6669;42.678;23.332;2022-09-01T08:01:40;94275.66;;;20.23;100.00
13209;BME280;6669;42.678;23.332;2022-09-01T08:04:09;94264.63;;;20.27;100.00
13209;BME280;6669;42.678;23.332;2022-09-01T08:06:37;94275.47;;;20.47;100.00
13209;BME280;6669;42.678;23.332;2022-09-01T08:09:08;94268.75;;;20.56;100.00
13209;BME280;6669;42.678;23.332;2022-09-01T08:11:37;94273.53;;;20.77;100.00
13209;BME280;6669;42.678;23.332;2022-09-01T08:14:25;94274.09;;;21.01;100.00
13209;BME280;6669;42.678;23.332;2022-09-01T08:17:00;94276.34;;;21.09;100.00
13209;BME280;6669;42.678;23.332;2022-09-01T08:19:43;94281.84;;;21.07;100.00
13209;BME280;6669;42.678;23.332;2022-09-01T08:22:12;94294.31;;;21.12;100.00
13209;BME280;6669;42.678;23.332;2022-09-01T08:24:42;94292.84;;;21.21;100.00
13209;BME280;6669;42.678;23.332;2022-09-01T08:27:10;94294.38;;;21.17;100.00
13209;BME280;6669;42.678;23.332;2022-09-01T08:29:39;94279.69;;;21.27;100.00
13209;BME280;6669;42.678;23.332;2022-09-01T08:32:07;94283.03;;;21.44;100.00
13209;BME280;6669;42.678;23.332;2022-09-01T08:34:37;94285.41;;;21.63;100.00
13209;BME280;6669;42.678;23.332;2022-09-01T08:37:05;94285.59;;;21.83;100.00
13209;BME280;6669;42.678;23.332;2022-09-01T08:39:33;94282.59;;;22.02;100.00
13209;BME280;6669;42.678;23.332;2022-09-01T08:42:07;94281.84;;;22.12;100.00
13209;BME280;6669;42.678;23.332;2022-09-01T08:44:45;94290.72;;;22.28;100.00
13209;BME280;6669;42.678;23.332;2022-09-01T08:47:17;94291.09;;;22.36;100.00
13209;BME280;6669;42.678;23.332;2022-09-01T08:50:05;94284.06;;;22.58;100.00
13209;BME280;6669;42.678;23.332;2022-09-01T08:52:36;94280.69;;;22.67;100.00
13209;BME280;6669;42.678;23.332;2022-09-01T08:55:12;94280.38;;;22.64;100.00
13209;BME280;6669;42.678;23.332;2022-09-01T08:57:44;94274.56;;;22.62;100.00
13209;BME280;6669;42.678;23.332;2022-09-01T09:00:15;94270.16;;;22.83;100.00
13209;BME280;6669;42.678;23.332;2022-09-01T09:02:56;94271.84;;;23.05;100.00
13209;BME280;6669;42.678;23.332;2022-09-01T09:05:41;94273.97;;;23.02;100.00
13209;BME280;6669;42.678;23.332;2022-09-01T09:08:21;94265.31;;;23.17;100.00
13209;BME280;6669;42.678;23.332;2022-09-01T09:11:00;94278.06;;;23.21;100.00
13209;BME280;6669;42.678;23.332;2022-09-01T09:13:40;94275.69;;;23.29;100.00
13209;BME280;6669;42.678;23.332;2022-09-01T09:16:17;94279.19;;;23.45;100.00
13209;BME280;6669;42.678;23.332;2022-09-01T09:18:49;94282.66;;;23.56;100.00
13209;BME280;6669;42.678;23.332;2022-09-01T09:21:25;94287.97;;;23.56;100.00
13209;BME280;6669;42.678;23.332;2022-09-01T09:24:00;94287.75;;;23.78;100.00
13209;BME280;6669;42.678;23.332;2022-09-01T09:26:29;94291.53;;;23.93;100.00
13209;BME280;6669;42.678;23.332;2022-09-01T09:29:09;94290.72;;;24.18;100.00
13209;BME280;6669;42.678;23.332;2022-09-01T09:31:39;94292.84;;;24.31;100.00
13209;BME280;6669;42.678;23.332;2022-09-01T09:34:17;94294.72;;;24.36;100.00
13209;BME280;6669;42.678;23.332;2022-09-01T09:36:55;94289.66;;;24.50;100.00
13209;BME280;6669;42.678;23.332;2022-09-01T09:39:23;94284.63;;;24.69;100.00
13209;BME280;6669;42.678;23.332;2022-09-01T09:42:05;94287.47;;;24.83;100.00
13209;BME280;6669;42.678;23.332;2022-09-01T09:44:42;94261.16;;;24.87;100.00
13209;BME280;6669;42.678;23.332;2022-09-01T09:47:36;94281.59;;;25.02;100.00
13209;BME280;6669;42.678;23.332;2022-09-01T09:50:23;94288.22;;;25.04;100.00
13209;BME280;6669;42.678;23.332;2022-09-01T09:53:11;94284.78;;;25.04;100.00
13209;BME280;6669;42.678;23.332;2022-09-01T09:56:02;94289.03;;;25.10;100.00
13209;BME280;6669;42.678;23.332;2022-09-01T09:58:35;94293.81;;;25.08;100.00
13209;BME280;6669;42.678;23.332;2022-09-01T10:01:07;94283.69;;;25.15;100.00
13209;BME280;6669;42.678;23.332;2022-09-01T10:03:46;94282.38;;;25.07;100.00
13209;BME280;6669;42.678;23.332;2022-09-01T10:06:30;94284.50;;;25.10;100.00
13209;BME280;6669;42.678;23.332;2022-09-01T10:08:59;94282.03;;;25.29;100.00
13209;BME280;6669;42.678;23.332;2022-09-01T10:11:32;94278.75;;;25.53;100.00
13209;BME280;6669;42.678;23.332;2022-09-01T10:14:12;94272.59;;;25.58;100.00
13209;BME280;6669;42.678;23.332;2022-09-01T10:17:13;94276.97;;;25.83;100.00
13209;BME280;6669;42.678;23.332;2022-09-01T10:19:53;94274.22;;;25.93;100.00
13209;BME280;6669;42.678;23.332;2022-09-01T10:22:22;94267.25;;;26.08;100.00
13209;BME280;6669;42.678;23.332;2022-09-01T10:24:51;94261.94;;;26.37;100.00
13209;BME280;6669;42.678;23.332;2022-09-01T10:27:22;94254.56;;;26.83;100.00
13209;BME280;6669;42.678;23.332;2022-09-01T10:29:54;94265.66;;;27.38;100.00
13209;BME280;6669;42.678;23.332;2022-09-01T10:32:45;94258.28;;;27.54;100.00
13209;BME280;6669;42.678;23.332;2022-09-01T10:35:25;94255.88;;;27.53;100.00
13209;BME280;6669;42.678;23.332;2022-09-01T10:37:54;94265.44;;;27.35;100.00
13209;BME280;6669;42.678;23.332;2022-09-01T10:40:37;94256.97;;;27.08;100.00
13209;BME280;6669;42.678;23.332;2022-09-01T10:43:25;94254.63;;;27.02;100.00
13209;BME280;6669;42.678;23.332;2022-09-01T10:45:54;94249.97;;;26.64;100.00
13209;BME280;6669;42.678;23.332;2022-09-01T10:48:32;94253.97;;;26.91;100.00
13209;BME280;6669;42.678;23.332;2022-09-01T10:51:43;94255.69;;;26.76;100.00
13209;BME280;6669;42.678;23.332;2022-09-01T10:54:51;94251.28;;;27.39;100.00
13209;BME280;6669;42.678;23.332;2022-09-01T10:57:40;94248.81;;;28.00;100.00
13209;BME280;6669;42.678;23.332;2022-09-01T11:03:53;94243.72;;;29.99;100.00
13209;BME280;6669;42.678;23.332;2022-09-01T11:06:54;94241.88;;;30.54;93.14
13209;BME280;6669;42.678;23.332;2022-09-01T11:09:42;94239.03;;;30.90;83.02
13209;BME280;6669;42.678;23.332;2022-09-01T11:15:33;94242.78;;;30.26;86.90
13209;BME280;6669;42.678;23.332;2022-09-01T11:18:07;94236.34;;;30.05;92.67
13209;BME280;6669;42.678;23.332;2022-09-01T11:20:39;94233.06;;;30.08;91.76
13209;BME280;6669;42.678;23.332;2022-09-01T11:23:18;94237.09;;;30.19;91.32
13209;BME280;6669;42.678;23.332;2022-09-01T11:25:49;94223.69;;;30.19;90.19
13209;BME280;6669;42.678;23.332;2022-09-01T11:28:40;94225.19;;;30.11;90.05
13209;BME280;6669;42.678;23.332;2022-09-01T11:31:30;94218.69;;;30.04;90.91
13209;BME280;6669;42.678;23.332;2022-09-01T11:34:08;94224.69;;;29.87;93.52
13209;BME280;6669;42.678;23.332;2022-09-01T11:36:45;94208.09;;;29.76;91.99
13209;BME280;6669;42.678;23.332;2022-09-01T11:39:27;94214.59;;;30.06;87.48
13209;BME280;6669;42.678;23.332;2022-09-01T11:42:00;94199.56;;;30.19;87.01
13209;BME280;6669;42.678;23.332;2022-09-01T11:44:34;94201.25;;;30.15;82.87
13209;BME280;6669;42.678;23.332;2022-09-01T11:47:12;94194.75;;;30.07;81.40
13209;BME280;6669;42.678;23.332;2022-09-01T11:49:51;94192.34;;;30.28;80.06
13209;BME280;6669;42.678;23.332;2022-09-01T11:52:22;94184.19;;;30.33;85.39
13209;BME280;6669;42.678;23.332;2022-09-01T11:54:53;94178.72;;;30.79;79.94
13209;BME280;6669;42.678;23.332;2022-09-01T11:57:24;94185.28;;;31.13;79.37
13209;BME280;6669;42.678;23.332;2022-09-01T11:59:53;94182.00;;;31.51;77.47
13209;BME280;6669;42.678;23.332;2022-09-01T12:02:24;94172.34;;;32.11;77.86
13209;BME280;6669;42.678;23.332;2022-09-01T12:04:54;94178.66;;;32.81;73.88
13209;BME280;6669;42.678;23.332;2022-09-01T12:07:32;94173.34;;;32.54;74.19
13209;BME280;6669;42.678;23.332;2022-09-01T12:10:13;94173.47;;;32.58;73.74
13209;BME280;6669;42.678;23.332;2022-09-01T12:12:41;94177.47;;;33.20;71.99
13209;BME280;6669;42.678;23.332;2022-09-01T12:15:17;94170.00;;;33.26;70.55
13209;BME280;6669;42.678;23.332;2022-09-01T12:17:46;94177.03;;;33.18;73.74
13209;BME280;6669;42.678;23.332;2022-09-01T12:20:26;94175.13;;;32.89;73.54
13209;BME280;6669;42.678;23.332;2022-09-01T12:22:57;94172.56;;;32.92;73.63
13209;BME280;6669;42.678;23.332;2022-09-01T12:25:29;94168.31;;;32.44;78.60
13209;BME280;6669;42.678;23.332;2022-09-01T12:27:59;94166.34;;;32.23;79.11
13209;BME280;6669;42.678;23.332;2022-09-01T12:30:27;94161.59;;;32.29;83.59
13209;BME280;6669;42.678;23.332;2022-09-01T12:33:05;94166.34;;;32.23;82.10
13209;BME280;6669;42.678;23.332;2022-09-01T12:35:50;94158.44;;;32.18;83.24
13209;BME280;6669;42.678;23.332;2022-09-01T12:38:28;94162.84;;;32.32;85.58
13209;BME280;6669;42.678;23.332;2022-09-01T12:40:57;94159.28;;;31.84;86.73
13209;BME280;6669;42.678;23.332;2022-09-01T12:43:27;94155.16;;;31.42;87.41
13209;BME280;6669;42.678;23.332;2022-09-01T12:45:56;94151.38;;;31.17;91.72
13209;BME280;6669;42.678;23.332;2022-09-01T12:48:29;94154.44;;;30.93;91.53
13209;BME280;6669;42.678;23.332;2022-09-01T12:51:01;94149.03;;;30.75;95.92
13209;BME280;6669;42.678;23.332;2022-09-01T12:53:33;94161.31;;;30.36;100.00
13209;BME280;6669;42.678;23.332;2022-09-01T12:56:19;94165.22;;;29.98;100.00
13209;BME280;6669;42.678;23.332;2022-09-01T12:58:50;94152.09;;;29.15;100.00
13209;BME280;6669;42.678;23.332;2022-09-01T13:01:26;94154.34;;;29.22;100.00
13209;BME280;6669;42.678;23.332;2022-09-01T13:04:22;94157.56;;;29.46;100.00
13209;BME280;6669;42.678;23.332;2022-09-01T13:06:52;94151.50;;;29.18;100.00
13209;BME280;6669;42.678;23.332;2022-09-01T13:09:20;94139.66;;;28.82;100.00
13209;BME280;6669;42.678;23.332;2022-09-01T13:11:50;94141.63;;;29.05;100.00
13209;BME280;6669;42.678;23.332;2022-09-01T13:14:33;94142.44;;;29.42;100.00
13209;BME280;6669;42.678;23.332;2022-09-01T13:17:01;94141.84;;;29.90;100.00
13209;BME280;6669;42.678;23.332;2022-09-01T13:19:30;94135.44;;;30.31;100.00
13209;BME280;6669;42.678;23.332;2022-09-01T13:21:58;94124.28;;;30.87;100.00
13209;BME280;6669;42.678;23.332;2022-09-01T13:24:26;94133.97;;;31.41;93.52
13209;BME280;6669;42.678;23.332;2022-09-01T13:26:58;94131.81;;;31.69;87.74
13209;BME280;6669;42.678;23.332;2022-09-01T13:29:47;94130.94;;;32.04;90.36